Rechercher aéroport 
image banner adimage banner adimage banner ad
image banner ad

PN80 - West Penn Hospital

Situé à Pittsburgh, United States

ICAO - PN80, IATA -

Données fournies par Airmate  

Information générale

Coordonnées: N40°27'39" W79°56'48"
Élévation : 1007 feet MSL.
Variation magnétique : -09° East
Voir autres Aéroports à Pennsylvania

Données opérationnelles

Special qualification required
Heure actuelle UTC:
Heure actuelle locale:
Météo à : KAGC - Allegheny County ( 12 km )
METAR: KAGC 132028Z 16005KT 10SM FEW049 BKN065 OVC110 26/19 A2982 RMK AO2 TSB07E22 T02610189
TAF: KAGC 131720Z 1318/1418 26005KT P6SM VCTS BKN050CB TEMPO 1319/1322 4SM -TSRA OVC040CB FM140000 24004KT P6SM SCT060 FM140800 00000KT 3SM BR SCT250 FM141400 25005KT P6SM SCT040
Voir NOTAMs / SUP AIP / TFR affectant cet aéroport [VIEW]
Fréquences de communication: [VIEW]

Pistes:

Coordonnées de l'aéroport

Adresse: Pittsburgh United States

Vue satellite de PN80